<?xml version="1.0" encoding="UTF-8" standalone="no" ?>
<gpx xmlns="http://www.topografix.com/GPX/1/1" xmlns:xsi="http://www.w3.org/2001/XMLSchema-instance" xsi:schemaLocation="http://www.topografix.com/GPX/1/1 http://www.topografix.com/GPX/1/1/gpx.xsd" version="1.1" creator="VisuGPX - https://www.visugpx.com">
  <metadata>
    <name>Marche Albert - Bécourt - La Boisselle - Aveluy - Albert</name>
    <desc><![CDATA[Marche Albert - Bécourt - La Boisselle - Aveluy - Albert le 26 décembre 2014]]></desc>
  </metadata>
  <trk>
    <name><![CDATA[2014-12-26 15:29]]></name>
    <desc><![CDATA[<h1>OruxMaps</h1><br /><hr align="center" width="480" style="height: 2px; width: 517px"/><h2>Nom: 2014-12-26 15:29</h2><br /><p>Temps de départ: 12/26/2014 07:29</p><p>Temps d'arrivée: 12/26/2014 09:54</p><p>Distance: 10,1km (02:25)</p><p>Temps déplacement: 02:05</p><p>Vitesse moyenne: 4,2km/h</p><p>Vitesse moyenne: 4,8km/h</p><p>Vitess Max.: 8,4km/h</p><p>Altitude minimale: 51m</p><p>Altitude maximale: 112m</p><p>Vitesse d'élévation: 205,4m/h</p><p>Vitesse de descente: -227,4m/h</p><p>Gain Altitude: 215m</p><p>Perte Altitude: -216m</p><p>Temps d'élévation: 01:02</p><p>Temps de descente: 00:57</p><hr align="center" width="480" style="height: 2px; width: 517px"/>]]></desc>
    <trkseg>
      <trkpt lat="50.00485" lon="2.65361">
        <ele>60.2</ele>
        <time>2014-12-26T14:29:36Z</time>
      </trkpt>
      <trkpt lat="50.0047" lon="2.6538">
        <ele>62.45</ele>
        <time>2014-12-26T14:29:59Z</time>
      </trkpt>
      <trkpt lat="50.00454" lon="2.65394">
        <ele>61.24</ele>
        <time>2014-12-26T14:30:13Z</time>
      </trkpt>
      <trkpt lat="50.00437" lon="2.65409">
        <ele>58.33</ele>
        <time>2014-12-26T14:30:28Z</time>
      </trkpt>
      <trkpt lat="50.00423" lon="2.65429">
        <ele>57.36</ele>
        <time>2014-12-26T14:30:44Z</time>
      </trkpt>
      <trkpt lat="50.00407" lon="2.65442">
        <ele>53.17</ele>
        <time>2014-12-26T14:31:00Z</time>
      </trkpt>
      <trkpt lat="50.0039" lon="2.65457">
        <ele>59.31</ele>
        <time>2014-12-26T14:31:15Z</time>
      </trkpt>
      <trkpt lat="50.00378" lon="2.65478">
        <ele>60.44</ele>
        <time>2014-12-26T14:31:30Z</time>
      </trkpt>
      <trkpt lat="50.00361" lon="2.65491">
        <ele>59.95</ele>
        <time>2014-12-26T14:31:51Z</time>
      </trkpt>
      <trkpt lat="50.00345" lon="2.65504">
        <ele>64.16</ele>
        <time>2014-12-26T14:32:07Z</time>
      </trkpt>
      <trkpt lat="50.00328" lon="2.65517">
        <ele>62.83</ele>
        <time>2014-12-26T14:32:21Z</time>
      </trkpt>
      <trkpt lat="50.00312" lon="2.65532">
        <ele>66.08</ele>
        <time>2014-12-26T14:32:37Z</time>
      </trkpt>
      <trkpt lat="50.00295" lon="2.65543">
        <ele>66.58</ele>
        <time>2014-12-26T14:32:51Z</time>
      </trkpt>
      <trkpt lat="50.00278" lon="2.65555">
        <ele>66.77</ele>
        <time>2014-12-26T14:33:08Z</time>
      </trkpt>
      <trkpt lat="50.00262" lon="2.65568">
        <ele>68.3</ele>
        <time>2014-12-26T14:33:22Z</time>
      </trkpt>
      <trkpt lat="50.00246" lon="2.65581">
        <ele>70.17</ele>
        <time>2014-12-26T14:33:36Z</time>
      </trkpt>
      <trkpt lat="50.00229" lon="2.65595">
        <ele>71.94</ele>
        <time>2014-12-26T14:33:50Z</time>
      </trkpt>
      <trkpt lat="50.00212" lon="2.65605">
        <ele>72.98</ele>
        <time>2014-12-26T14:34:07Z</time>
      </trkpt>
      <trkpt lat="50.00201" lon="2.65629">
        <ele>70.2</ele>
        <time>2014-12-26T14:34:36Z</time>
      </trkpt>
      <trkpt lat="50.00192" lon="2.65654">
        <ele>70.71</ele>
        <time>2014-12-26T14:34:50Z</time>
      </trkpt>
      <trkpt lat="50.00185" lon="2.65682">
        <ele>72.94</ele>
        <time>2014-12-26T14:35:05Z</time>
      </trkpt>
      <trkpt lat="50.00183" lon="2.65711">
        <ele>73.7</ele>
        <time>2014-12-26T14:35:20Z</time>
      </trkpt>
      <trkpt lat="50.00178" lon="2.65739">
        <ele>74.17</ele>
        <time>2014-12-26T14:35:36Z</time>
      </trkpt>
      <trkpt lat="50.00168" lon="2.65765">
        <ele>75.2</ele>
        <time>2014-12-26T14:35:51Z</time>
      </trkpt>
      <trkpt lat="50.00158" lon="2.65788">
        <ele>75.23</ele>
        <time>2014-12-26T14:36:06Z</time>
      </trkpt>
      <trkpt lat="50.00147" lon="2.65812">
        <ele>73.23</ele>
        <time>2014-12-26T14:36:25Z</time>
      </trkpt>
      <trkpt lat="50.00146" lon="2.65841">
        <ele>70.2</ele>
        <time>2014-12-26T14:36:45Z</time>
      </trkpt>
      <trkpt lat="50.00159" lon="2.6586">
        <ele>68.2</ele>
        <time>2014-12-26T14:36:58Z</time>
      </trkpt>
      <trkpt lat="50.00174" lon="2.65879">
        <ele>69.2</ele>
        <time>2014-12-26T14:37:12Z</time>
      </trkpt>
      <trkpt lat="50.00187" lon="2.65902">
        <ele>69.26</ele>
        <time>2014-12-26T14:37:28Z</time>
      </trkpt>
      <trkpt lat="50.00198" lon="2.65924">
        <ele>67.1</ele>
        <time>2014-12-26T14:37:43Z</time>
      </trkpt>
      <trkpt lat="50.00197" lon="2.65953">
        <ele>67.56</ele>
        <time>2014-12-26T14:37:58Z</time>
      </trkpt>
      <trkpt lat="50.00199" lon="2.65982">
        <ele>68.07</ele>
        <time>2014-12-26T14:38:14Z</time>
      </trkpt>
      <trkpt lat="50.00193" lon="2.66009">
        <ele>77.52</ele>
        <time>2014-12-26T14:38:32Z</time>
      </trkpt>
      <trkpt lat="50.00194" lon="2.66038">
        <ele>74.02</ele>
        <time>2014-12-26T14:38:47Z</time>
      </trkpt>
      <trkpt lat="50.00194" lon="2.66066">
        <ele>73.26</ele>
        <time>2014-12-26T14:39:03Z</time>
      </trkpt>
      <trkpt lat="50.0019" lon="2.66095">
        <ele>73.23</ele>
        <time>2014-12-26T14:39:21Z</time>
      </trkpt>
      <trkpt lat="50.00189" lon="2.66125">
        <ele>72.11</ele>
        <time>2014-12-26T14:39:52Z</time>
      </trkpt>
      <trkpt lat="50.00196" lon="2.66152">
        <ele>70.23</ele>
        <time>2014-12-26T14:40:22Z</time>
      </trkpt>
      <trkpt lat="50.00195" lon="2.66181">
        <ele>70.93</ele>
        <time>2014-12-26T14:40:38Z</time>
      </trkpt>
      <trkpt lat="50.00192" lon="2.66209">
        <ele>76.1</ele>
        <time>2014-12-26T14:40:51Z</time>
      </trkpt>
      <trkpt lat="50.00193" lon="2.66238">
        <ele>77.17</ele>
        <time>2014-12-26T14:41:05Z</time>
      </trkpt>
      <trkpt lat="50.00196" lon="2.66266">
        <ele>78.2</ele>
        <time>2014-12-26T14:41:19Z</time>
      </trkpt>
      <trkpt lat="50.002" lon="2.66294">
        <ele>78.08</ele>
        <time>2014-12-26T14:41:33Z</time>
      </trkpt>
      <trkpt lat="50.00203" lon="2.66324">
        <ele>78.05</ele>
        <time>2014-12-26T14:41:48Z</time>
      </trkpt>
      <trkpt lat="50.00204" lon="2.66352">
        <ele>77.48</ele>
        <time>2014-12-26T14:42:03Z</time>
      </trkpt>
      <trkpt lat="50.00204" lon="2.6638">
        <ele>80.06</ele>
        <time>2014-12-26T14:42:17Z</time>
      </trkpt>
      <trkpt lat="50.00207" lon="2.66409">
        <ele>80.09</ele>
        <time>2014-12-26T14:42:32Z</time>
      </trkpt>
      <trkpt lat="50.00209" lon="2.66437">
        <ele>78.2</ele>
        <time>2014-12-26T14:42:48Z</time>
      </trkpt>
      <trkpt lat="50.00213" lon="2.66465">
        <ele>80</ele>
        <time>2014-12-26T14:43:03Z</time>
      </trkpt>
      <trkpt lat="50.00216" lon="2.66494">
        <ele>79.31</ele>
        <time>2014-12-26T14:43:18Z</time>
      </trkpt>
      <trkpt lat="50.00217" lon="2.66523">
        <ele>78.69</ele>
        <time>2014-12-26T14:43:34Z</time>
      </trkpt>
      <trkpt lat="50.00218" lon="2.66551">
        <ele>79.76</ele>
        <time>2014-12-26T14:44:01Z</time>
      </trkpt>
      <trkpt lat="50.0022" lon="2.66579">
        <ele>80.21</ele>
        <time>2014-12-26T14:44:16Z</time>
      </trkpt>
      <trkpt lat="50.00224" lon="2.66607">
        <ele>81.24</ele>
        <time>2014-12-26T14:44:36Z</time>
      </trkpt>
      <trkpt lat="50.00226" lon="2.66635">
        <ele>81.2</ele>
        <time>2014-12-26T14:45:03Z</time>
      </trkpt>
      <trkpt lat="50.00229" lon="2.66663">
        <ele>83.2</ele>
        <time>2014-12-26T14:45:19Z</time>
      </trkpt>
      <trkpt lat="50.00232" lon="2.66691">
        <ele>84.19</ele>
        <time>2014-12-26T14:45:34Z</time>
      </trkpt>
      <trkpt lat="50.00236" lon="2.66719">
        <ele>85.32</ele>
        <time>2014-12-26T14:45:49Z</time>
      </trkpt>
      <trkpt lat="50.0024" lon="2.66747">
        <ele>86.33</ele>
        <time>2014-12-26T14:46:05Z</time>
      </trkpt>
      <trkpt lat="50.00244" lon="2.66775">
        <ele>88.18</ele>
        <time>2014-12-26T14:46:22Z</time>
      </trkpt>
      <trkpt lat="50.00246" lon="2.66803">
        <ele>90.73</ele>
        <time>2014-12-26T14:46:54Z</time>
      </trkpt>
      <trkpt lat="50.00251" lon="2.66832">
        <ele>91.08</ele>
        <time>2014-12-26T14:47:11Z</time>
      </trkpt>
      <trkpt lat="50.00254" lon="2.66859">
        <ele>91.82</ele>
        <time>2014-12-26T14:47:26Z</time>
      </trkpt>
      <trkpt lat="50.00257" lon="2.66887">
        <ele>93.19</ele>
        <time>2014-12-26T14:47:50Z</time>
      </trkpt>
      <trkpt lat="50.0026" lon="2.66917">
        <ele>93.2</ele>
        <time>2014-12-26T14:48:04Z</time>
      </trkpt>
      <trkpt lat="50.0026" lon="2.66945">
        <ele>94.17</ele>
        <time>2014-12-26T14:48:19Z</time>
      </trkpt>
      <trkpt lat="50.00259" lon="2.66973">
        <ele>95.2</ele>
        <time>2014-12-26T14:48:34Z</time>
      </trkpt>
      <trkpt lat="50.00257" lon="2.67003">
        <ele>95.95</ele>
        <time>2014-12-26T14:48:50Z</time>
      </trkpt>
      <trkpt lat="50.00257" lon="2.67031">
        <ele>98.16</ele>
        <time>2014-12-26T14:49:05Z</time>
      </trkpt>
      <trkpt lat="50.00256" lon="2.6706">
        <ele>98.11</ele>
        <time>2014-12-26T14:49:20Z</time>
      </trkpt>
      <trkpt lat="50.00257" lon="2.67089">
        <ele>99.2</ele>
        <time>2014-12-26T14:49:35Z</time>
      </trkpt>
      <trkpt lat="50.00256" lon="2.67118">
        <ele>101.15</ele>
        <time>2014-12-26T14:49:58Z</time>
      </trkpt>
      <trkpt lat="50.00257" lon="2.67146">
        <ele>101.2</ele>
        <time>2014-12-26T14:50:14Z</time>
      </trkpt>
      <trkpt lat="50.00258" lon="2.67175">
        <ele>100.2</ele>
        <time>2014-12-26T14:50:31Z</time>
      </trkpt>
      <trkpt lat="50.00257" lon="2.67204">
        <ele>100.27</ele>
        <time>2014-12-26T14:50:46Z</time>
      </trkpt>
      <trkpt lat="50.00258" lon="2.67233">
        <ele>100.22</ele>
        <time>2014-12-26T14:51:02Z</time>
      </trkpt>
      <trkpt lat="50.00259" lon="2.67261">
        <ele>101.95</ele>
        <time>2014-12-26T14:51:22Z</time>
      </trkpt>
      <trkpt lat="50.00258" lon="2.6729">
        <ele>101.2</ele>
        <time>2014-12-26T14:51:40Z</time>
      </trkpt>
      <trkpt lat="50.00258" lon="2.67318">
        <ele>99.95</ele>
        <time>2014-12-26T14:51:59Z</time>
      </trkpt>
      <trkpt lat="50.00259" lon="2.67347">
        <ele>100.2</ele>
        <time>2014-12-26T14:52:15Z</time>
      </trkpt>
      <trkpt lat="50.00261" lon="2.67376">
        <ele>101.2</ele>
        <time>2014-12-26T14:52:31Z</time>
      </trkpt>
      <trkpt lat="50.00266" lon="2.67403">
        <ele>101.45</ele>
        <time>2014-12-26T14:52:46Z</time>
      </trkpt>
      <trkpt lat="50.00272" lon="2.6743">
        <ele>101.2</ele>
        <time>2014-12-26T14:53:02Z</time>
      </trkpt>
      <trkpt lat="50.0028" lon="2.67457">
        <ele>101.2</ele>
        <time>2014-12-26T14:53:18Z</time>
      </trkpt>
      <trkpt lat="50.00285" lon="2.67484">
        <ele>101.95</ele>
        <time>2014-12-26T14:53:33Z</time>
      </trkpt>
      <trkpt lat="50.00294" lon="2.67509">
        <ele>105.17</ele>
        <time>2014-12-26T14:53:48Z</time>
      </trkpt>
      <trkpt lat="50.00303" lon="2.67534">
        <ele>105.92</ele>
        <time>2014-12-26T14:54:11Z</time>
      </trkpt>
      <trkpt lat="50.00311" lon="2.6756">
        <ele>106.2</ele>
        <time>2014-12-26T14:54:28Z</time>
      </trkpt>
      <trkpt lat="50.00319" lon="2.67586">
        <ele>104.33</ele>
        <time>2014-12-26T14:54:45Z</time>
      </trkpt>
      <trkpt lat="50.00327" lon="2.67612">
        <ele>103.7</ele>
        <time>2014-12-26T14:55:03Z</time>
      </trkpt>
      <trkpt lat="50.00335" lon="2.67637">
        <ele>103.2</ele>
        <time>2014-12-26T14:55:19Z</time>
      </trkpt>
      <trkpt lat="50.00343" lon="2.67664">
        <ele>102.2</ele>
        <time>2014-12-26T14:55:35Z</time>
      </trkpt>
      <trkpt lat="50.00351" lon="2.6769">
        <ele>102.2</ele>
        <time>2014-12-26T14:55:50Z</time>
      </trkpt>
      <trkpt lat="50.00358" lon="2.67717">
        <ele>101.25</ele>
        <time>2014-12-26T14:56:06Z</time>
      </trkpt>
      <trkpt lat="50.00363" lon="2.67745">
        <ele>102.56</ele>
        <time>2014-12-26T14:56:21Z</time>
      </trkpt>
      <trkpt lat="50.00367" lon="2.67774">
        <ele>104.14</ele>
        <time>2014-12-26T14:56:35Z</time>
      </trkpt>
      <trkpt lat="50.00372" lon="2.67801">
        <ele>104.2</ele>
        <time>2014-12-26T14:56:51Z</time>
      </trkpt>
      <trkpt lat="50.00375" lon="2.6783">
        <ele>103.2</ele>
        <time>2014-12-26T14:57:07Z</time>
      </trkpt>
      <trkpt lat="50.00377" lon="2.67859">
        <ele>102.22</ele>
        <time>2014-12-26T14:57:22Z</time>
      </trkpt>
      <trkpt lat="50.00379" lon="2.67887">
        <ele>101.2</ele>
        <time>2014-12-26T14:57:37Z</time>
      </trkpt>
      <trkpt lat="50.00382" lon="2.67917">
        <ele>101.2</ele>
        <time>2014-12-26T14:57:54Z</time>
      </trkpt>
      <trkpt lat="50.00385" lon="2.67946">
        <ele>98.2</ele>
        <time>2014-12-26T14:59:31Z</time>
      </trkpt>
      <trkpt lat="50.00386" lon="2.67974">
        <ele>98.2</ele>
        <time>2014-12-26T14:59:52Z</time>
      </trkpt>
      <trkpt lat="50.00404" lon="2.67985">
        <ele>99.33</ele>
        <time>2014-12-26T15:00:44Z</time>
      </trkpt>
      <trkpt lat="50.00389" lon="2.68004">
        <ele>99.2</ele>
        <time>2014-12-26T15:01:20Z</time>
      </trkpt>
      <trkpt lat="50.00391" lon="2.68033">
        <ele>98.2</ele>
        <time>2014-12-26T15:01:38Z</time>
      </trkpt>
      <trkpt lat="50.00398" lon="2.6806">
        <ele>97.74</ele>
        <time>2014-12-26T15:01:53Z</time>
      </trkpt>
      <trkpt lat="50.00407" lon="2.68085">
        <ele>94.22</ele>
        <time>2014-12-26T15:02:10Z</time>
      </trkpt>
      <trkpt lat="50.00415" lon="2.68112">
        <ele>91.75</ele>
        <time>2014-12-26T15:02:26Z</time>
      </trkpt>
      <trkpt lat="50.00423" lon="2.68139">
        <ele>89.09</ele>
        <time>2014-12-26T15:02:44Z</time>
      </trkpt>
      <trkpt lat="50.00429" lon="2.68166">
        <ele>91.72</ele>
        <time>2014-12-26T15:02:54Z</time>
      </trkpt>
      <trkpt lat="50.00431" lon="2.68194">
        <ele>91.4</ele>
        <time>2014-12-26T15:03:09Z</time>
      </trkpt>
      <trkpt lat="50.00429" lon="2.68222">
        <ele>86.76</ele>
        <time>2014-12-26T15:03:24Z</time>
      </trkpt>
      <trkpt lat="50.00428" lon="2.68252">
        <ele>84.99</ele>
        <time>2014-12-26T15:03:39Z</time>
      </trkpt>
      <trkpt lat="50.00424" lon="2.6828">
        <ele>79.23</ele>
        <time>2014-12-26T15:03:51Z</time>
      </trkpt>
      <trkpt lat="50.00424" lon="2.68309">
        <ele>78.16</ele>
        <time>2014-12-26T15:04:04Z</time>
      </trkpt>
      <trkpt lat="50.00422" lon="2.68337">
        <ele>77.07</ele>
        <time>2014-12-26T15:04:17Z</time>
      </trkpt>
      <trkpt lat="50.0042" lon="2.68366">
        <ele>75.67</ele>
        <time>2014-12-26T15:04:34Z</time>
      </trkpt>
      <trkpt lat="50.00417" lon="2.68395">
        <ele>75.1</ele>
        <time>2014-12-26T15:04:47Z</time>
      </trkpt>
      <trkpt lat="50.00417" lon="2.68423">
        <ele>72.47</ele>
        <time>2014-12-26T15:05:04Z</time>
      </trkpt>
      <trkpt lat="50.00415" lon="2.68451">
        <ele>77.41</ele>
        <time>2014-12-26T15:05:15Z</time>
      </trkpt>
      <trkpt lat="50.00414" lon="2.6848">
        <ele>77.37</ele>
        <time>2014-12-26T15:05:30Z</time>
      </trkpt>
      <trkpt lat="50.00413" lon="2.68508">
        <ele>74.05</ele>
        <time>2014-12-26T15:05:46Z</time>
      </trkpt>
      <trkpt lat="50.00413" lon="2.68538">
        <ele>72.88</ele>
        <time>2014-12-26T15:06:02Z</time>
      </trkpt>
      <trkpt lat="50.00409" lon="2.68567">
        <ele>62.71</ele>
        <time>2014-12-26T15:06:31Z</time>
      </trkpt>
      <trkpt lat="50.00416" lon="2.68593">
        <ele>59.14</ele>
        <time>2014-12-26T15:07:13Z</time>
      </trkpt>
      <trkpt lat="50.00427" lon="2.68616">
        <ele>64.87</ele>
        <time>2014-12-26T15:07:30Z</time>
      </trkpt>
      <trkpt lat="50.00432" lon="2.68644">
        <ele>64</ele>
        <time>2014-12-26T15:07:59Z</time>
      </trkpt>
      <trkpt lat="50.0044" lon="2.6867">
        <ele>60.53</ele>
        <time>2014-12-26T15:08:23Z</time>
      </trkpt>
      <trkpt lat="50.00444" lon="2.68697">
        <ele>66.85</ele>
        <time>2014-12-26T15:08:36Z</time>
      </trkpt>
      <trkpt lat="50.00448" lon="2.68727">
        <ele>70.86</ele>
        <time>2014-12-26T15:08:56Z</time>
      </trkpt>
      <trkpt lat="50.00454" lon="2.68754">
        <ele>70.85</ele>
        <time>2014-12-26T15:09:14Z</time>
      </trkpt>
      <trkpt lat="50.00457" lon="2.68782">
        <ele>72.06</ele>
        <time>2014-12-26T15:09:30Z</time>
      </trkpt>
      <trkpt lat="50.00459" lon="2.68812">
        <ele>73.87</ele>
        <time>2014-12-26T15:09:46Z</time>
      </trkpt>
      <trkpt lat="50.00459" lon="2.68841">
        <ele>75.22</ele>
        <time>2014-12-26T15:10:05Z</time>
      </trkpt>
      <trkpt lat="50.00461" lon="2.6887">
        <ele>80.72</ele>
        <time>2014-12-26T15:10:20Z</time>
      </trkpt>
      <trkpt lat="50.00462" lon="2.68898">
        <ele>78.24</ele>
        <time>2014-12-26T15:10:39Z</time>
      </trkpt>
      <trkpt lat="50.00465" lon="2.68927">
        <ele>82.26</ele>
        <time>2014-12-26T15:10:56Z</time>
      </trkpt>
      <trkpt lat="50.00469" lon="2.68954">
        <ele>80.34</ele>
        <time>2014-12-26T15:11:13Z</time>
      </trkpt>
      <trkpt lat="50.00474" lon="2.68982">
        <ele>83.01</ele>
        <time>2014-12-26T15:11:27Z</time>
      </trkpt>
      <trkpt lat="50.00481" lon="2.69008">
        <ele>84.94</ele>
        <time>2014-12-26T15:11:39Z</time>
      </trkpt>
      <trkpt lat="50.00489" lon="2.69035">
        <ele>83.73</ele>
        <time>2014-12-26T15:11:58Z</time>
      </trkpt>
      <trkpt lat="50.00505" lon="2.69048">
        <ele>85.76</ele>
        <time>2014-12-26T15:12:27Z</time>
      </trkpt>
      <trkpt lat="50.00524" lon="2.69049">
        <ele>83.45</ele>
        <time>2014-12-26T15:12:46Z</time>
      </trkpt>
      <trkpt lat="50.00541" lon="2.69055">
        <ele>85.86</ele>
        <time>2014-12-26T15:13:15Z</time>
      </trkpt>
      <trkpt lat="50.00558" lon="2.69067">
        <ele>92.54</ele>
        <time>2014-12-26T15:13:31Z</time>
      </trkpt>
      <trkpt lat="50.00577" lon="2.69074">
        <ele>90.89</ele>
        <time>2014-12-26T15:13:47Z</time>
      </trkpt>
      <trkpt lat="50.00596" lon="2.69073">
        <ele>85.95</ele>
        <time>2014-12-26T15:14:07Z</time>
      </trkpt>
      <trkpt lat="50.00614" lon="2.69073">
        <ele>94.18</ele>
        <time>2014-12-26T15:14:20Z</time>
      </trkpt>
      <trkpt lat="50.0063" lon="2.69059">
        <ele>90.25</ele>
        <time>2014-12-26T15:14:36Z</time>
      </trkpt>
      <trkpt lat="50.00643" lon="2.69038">
        <ele>81.55</ele>
        <time>2014-12-26T15:14:52Z</time>
      </trkpt>
      <trkpt lat="50.00661" lon="2.6904">
        <ele>80.95</ele>
        <time>2014-12-26T15:15:10Z</time>
      </trkpt>
      <trkpt lat="50.00679" lon="2.69033">
        <ele>83.72</ele>
        <time>2014-12-26T15:15:25Z</time>
      </trkpt>
      <trkpt lat="50.00695" lon="2.69018">
        <ele>81.57</ele>
        <time>2014-12-26T15:15:39Z</time>
      </trkpt>
      <trkpt lat="50.00713" lon="2.69011">
        <ele>83.46</ele>
        <time>2014-12-26T15:15:58Z</time>
      </trkpt>
      <trkpt lat="50.00727" lon="2.68993">
        <ele>77.2</ele>
        <time>2014-12-26T15:16:13Z</time>
      </trkpt>
      <trkpt lat="50.00743" lon="2.68979">
        <ele>79.39</ele>
        <time>2014-12-26T15:16:26Z</time>
      </trkpt>
      <trkpt lat="50.00757" lon="2.68997">
        <ele>85.3</ele>
        <time>2014-12-26T15:16:43Z</time>
      </trkpt>
      <trkpt lat="50.00771" lon="2.69014">
        <ele>85.44</ele>
        <time>2014-12-26T15:23:03Z</time>
      </trkpt>
      <trkpt lat="50.00787" lon="2.69032">
        <ele>85.43</ele>
        <time>2014-12-26T15:23:15Z</time>
      </trkpt>
      <trkpt lat="50.00801" lon="2.69051">
        <ele>84.68</ele>
        <time>2014-12-26T15:23:31Z</time>
      </trkpt>
      <trkpt lat="50.00816" lon="2.69069">
        <ele>83.6</ele>
        <time>2014-12-26T15:23:47Z</time>
      </trkpt>
      <trkpt lat="50.0083" lon="2.69088">
        <ele>84.82</ele>
        <time>2014-12-26T15:24:03Z</time>
      </trkpt>
      <trkpt lat="50.00846" lon="2.69104">
        <ele>90.2</ele>
        <time>2014-12-26T15:24:17Z</time>
      </trkpt>
      <trkpt lat="50.00858" lon="2.69125">
        <ele>85.39</ele>
        <time>2014-12-26T15:24:33Z</time>
      </trkpt>
      <trkpt lat="50.00876" lon="2.69139">
        <ele>88.39</ele>
        <time>2014-12-26T15:24:48Z</time>
      </trkpt>
      <trkpt lat="50.00894" lon="2.69144">
        <ele>90.17</ele>
        <time>2014-12-26T15:25:10Z</time>
      </trkpt>
      <trkpt lat="50.00912" lon="2.69154">
        <ele>88.83</ele>
        <time>2014-12-26T15:25:25Z</time>
      </trkpt>
      <trkpt lat="50.0093" lon="2.69164">
        <ele>88.17</ele>
        <time>2014-12-26T15:25:40Z</time>
      </trkpt>
      <trkpt lat="50.00947" lon="2.69172">
        <ele>89.19</ele>
        <time>2014-12-26T15:25:55Z</time>
      </trkpt>
      <trkpt lat="50.00965" lon="2.6918">
        <ele>89.98</ele>
        <time>2014-12-26T15:26:10Z</time>
      </trkpt>
      <trkpt lat="50.00983" lon="2.69188">
        <ele>91.83</ele>
        <time>2014-12-26T15:26:26Z</time>
      </trkpt>
      <trkpt lat="50.01002" lon="2.69192">
        <ele>93.1</ele>
        <time>2014-12-26T15:26:41Z</time>
      </trkpt>
      <trkpt lat="50.01019" lon="2.69202">
        <ele>91.13</ele>
        <time>2014-12-26T15:26:56Z</time>
      </trkpt>
      <trkpt lat="50.01037" lon="2.69211">
        <ele>92.18</ele>
        <time>2014-12-26T15:27:10Z</time>
      </trkpt>
      <trkpt lat="50.01055" lon="2.69216">
        <ele>92.69</ele>
        <time>2014-12-26T15:27:27Z</time>
      </trkpt>
      <trkpt lat="50.01073" lon="2.69221">
        <ele>93.2</ele>
        <time>2014-12-26T15:27:45Z</time>
      </trkpt>
      <trkpt lat="50.01091" lon="2.6923">
        <ele>95.14</ele>
        <time>2014-12-26T15:28:01Z</time>
      </trkpt>
      <trkpt lat="50.0111" lon="2.69235">
        <ele>96.7</ele>
        <time>2014-12-26T15:28:17Z</time>
      </trkpt>
      <trkpt lat="50.01128" lon="2.69241">
        <ele>95.33</ele>
        <time>2014-12-26T15:28:33Z</time>
      </trkpt>
      <trkpt lat="50.01146" lon="2.69245">
        <ele>93.96</ele>
        <time>2014-12-26T15:29:23Z</time>
      </trkpt>
      <trkpt lat="50.01164" lon="2.6925">
        <ele>97.2</ele>
        <time>2014-12-26T15:32:10Z</time>
      </trkpt>
      <trkpt lat="50.01181" lon="2.6926">
        <ele>95.2</ele>
        <time>2014-12-26T15:33:11Z</time>
      </trkpt>
      <trkpt lat="50.01199" lon="2.69268">
        <ele>95.11</ele>
        <time>2014-12-26T15:33:29Z</time>
      </trkpt>
      <trkpt lat="50.01218" lon="2.69268">
        <ele>94.95</ele>
        <time>2014-12-26T15:33:45Z</time>
      </trkpt>
      <trkpt lat="50.01236" lon="2.69268">
        <ele>95.72</ele>
        <time>2014-12-26T15:34:00Z</time>
      </trkpt>
      <trkpt lat="50.01254" lon="2.69265">
        <ele>94.98</ele>
        <time>2014-12-26T15:34:15Z</time>
      </trkpt>
      <trkpt lat="50.01273" lon="2.6926">
        <ele>93.23</ele>
        <time>2014-12-26T15:34:32Z</time>
      </trkpt>
      <trkpt lat="50.01291" lon="2.69257">
        <ele>92.2</ele>
        <time>2014-12-26T15:34:49Z</time>
      </trkpt>
      <trkpt lat="50.0131" lon="2.69255">
        <ele>90.21</ele>
        <time>2014-12-26T15:35:05Z</time>
      </trkpt>
      <trkpt lat="50.01329" lon="2.69254">
        <ele>90.2</ele>
        <time>2014-12-26T15:35:23Z</time>
      </trkpt>
      <trkpt lat="50.01347" lon="2.69257">
        <ele>91.72</ele>
        <time>2014-12-26T15:35:40Z</time>
      </trkpt>
      <trkpt lat="50.01366" lon="2.69259">
        <ele>91.2</ele>
        <time>2014-12-26T15:35:57Z</time>
      </trkpt>
      <trkpt lat="50.01385" lon="2.69263">
        <ele>90.7</ele>
        <time>2014-12-26T15:36:12Z</time>
      </trkpt>
      <trkpt lat="50.01403" lon="2.69266">
        <ele>89.45</ele>
        <time>2014-12-26T15:36:28Z</time>
      </trkpt>
      <trkpt lat="50.01421" lon="2.69269">
        <ele>89.39</ele>
        <time>2014-12-26T15:36:44Z</time>
      </trkpt>
      <trkpt lat="50.0144" lon="2.6927">
        <ele>89.95</ele>
        <time>2014-12-26T15:37:00Z</time>
      </trkpt>
      <trkpt lat="50.01459" lon="2.69274">
        <ele>90.14</ele>
        <time>2014-12-26T15:37:15Z</time>
      </trkpt>
      <trkpt lat="50.01477" lon="2.69277">
        <ele>91.17</ele>
        <time>2014-12-26T15:37:41Z</time>
      </trkpt>
      <trkpt lat="50.01496" lon="2.6928">
        <ele>92.19</ele>
        <time>2014-12-26T15:37:57Z</time>
      </trkpt>
      <trkpt lat="50.01514" lon="2.69283">
        <ele>92.7</ele>
        <time>2014-12-26T15:38:31Z</time>
      </trkpt>
      <trkpt lat="50.01533" lon="2.69286">
        <ele>92.2</ele>
        <time>2014-12-26T15:38:53Z</time>
      </trkpt>
      <trkpt lat="50.01552" lon="2.69289">
        <ele>92.2</ele>
        <time>2014-12-26T15:39:11Z</time>
      </trkpt>
      <trkpt lat="50.0157" lon="2.69291">
        <ele>94.08</ele>
        <time>2014-12-26T15:39:27Z</time>
      </trkpt>
      <trkpt lat="50.01589" lon="2.69294">
        <ele>95.19</ele>
        <time>2014-12-26T15:39:53Z</time>
      </trkpt>
      <trkpt lat="50.01608" lon="2.69297">
        <ele>94.83</ele>
        <time>2014-12-26T15:40:07Z</time>
      </trkpt>
      <trkpt lat="50.01627" lon="2.693">
        <ele>95.19</ele>
        <time>2014-12-26T15:40:20Z</time>
      </trkpt>
      <trkpt lat="50.01645" lon="2.69305">
        <ele>94.2</ele>
        <time>2014-12-26T15:40:35Z</time>
      </trkpt>
      <trkpt lat="50.01663" lon="2.69308">
        <ele>94.2</ele>
        <time>2014-12-26T15:40:50Z</time>
      </trkpt>
      <trkpt lat="50.01682" lon="2.69311">
        <ele>93.45</ele>
        <time>2014-12-26T15:41:04Z</time>
      </trkpt>
      <trkpt lat="50.01701" lon="2.6931">
        <ele>92.77</ele>
        <time>2014-12-26T15:41:18Z</time>
      </trkpt>
      <trkpt lat="50.01719" lon="2.69301">
        <ele>91.33</ele>
        <time>2014-12-26T15:41:32Z</time>
      </trkpt>
      <trkpt lat="50.01737" lon="2.6929">
        <ele>91.2</ele>
        <time>2014-12-26T15:41:47Z</time>
      </trkpt>
      <trkpt lat="50.01754" lon="2.69278">
        <ele>92.13</ele>
        <time>2014-12-26T15:42:02Z</time>
      </trkpt>
      <trkpt lat="50.01771" lon="2.69269">
        <ele>91.34</ele>
        <time>2014-12-26T15:42:23Z</time>
      </trkpt>
      <trkpt lat="50.0179" lon="2.6926">
        <ele>90.26</ele>
        <time>2014-12-26T15:42:36Z</time>
      </trkpt>
      <trkpt lat="50.01807" lon="2.69252">
        <ele>91.96</ele>
        <time>2014-12-26T15:42:52Z</time>
      </trkpt>
      <trkpt lat="50.01825" lon="2.69245">
        <ele>92.92</ele>
        <time>2014-12-26T15:43:06Z</time>
      </trkpt>
      <trkpt lat="50.01842" lon="2.69238">
        <ele>92.02</ele>
        <time>2014-12-26T15:43:20Z</time>
      </trkpt>
      <trkpt lat="50.01861" lon="2.69231">
        <ele>92.6</ele>
        <time>2014-12-26T15:43:35Z</time>
      </trkpt>
      <trkpt lat="50.01879" lon="2.69224">
        <ele>93.02</ele>
        <time>2014-12-26T15:43:48Z</time>
      </trkpt>
      <trkpt lat="50.01897" lon="2.69216">
        <ele>92.3</ele>
        <time>2014-12-26T15:44:03Z</time>
      </trkpt>
      <trkpt lat="50.01914" lon="2.69207">
        <ele>94.19</ele>
        <time>2014-12-26T15:44:18Z</time>
      </trkpt>
      <trkpt lat="50.01929" lon="2.69192">
        <ele>93.09</ele>
        <time>2014-12-26T15:44:41Z</time>
      </trkpt>
      <trkpt lat="50.01933" lon="2.69164">
        <ele>96.45</ele>
        <time>2014-12-26T15:45:18Z</time>
      </trkpt>
      <trkpt lat="50.01929" lon="2.69135">
        <ele>99.16</ele>
        <time>2014-12-26T15:45:38Z</time>
      </trkpt>
      <trkpt lat="50.01921" lon="2.6911">
        <ele>93.33</ele>
        <time>2014-12-26T15:46:28Z</time>
      </trkpt>
      <trkpt lat="50.01914" lon="2.69083">
        <ele>92.51</ele>
        <time>2014-12-26T15:46:53Z</time>
      </trkpt>
      <trkpt lat="50.01907" lon="2.69056">
        <ele>90.35</ele>
        <time>2014-12-26T15:47:12Z</time>
      </trkpt>
      <trkpt lat="50.01902" lon="2.69028">
        <ele>90.08</ele>
        <time>2014-12-26T15:47:27Z</time>
      </trkpt>
      <trkpt lat="50.01896" lon="2.69">
        <ele>88.58</ele>
        <time>2014-12-26T15:47:47Z</time>
      </trkpt>
      <trkpt lat="50.01893" lon="2.68973">
        <ele>92.54</ele>
        <time>2014-12-26T15:48:11Z</time>
      </trkpt>
      <trkpt lat="50.01886" lon="2.68945">
        <ele>93.2</ele>
        <time>2014-12-26T15:48:32Z</time>
      </trkpt>
      <trkpt lat="50.0188" lon="2.68919">
        <ele>91.76</ele>
        <time>2014-12-26T15:48:50Z</time>
      </trkpt>
      <trkpt lat="50.01874" lon="2.68892">
        <ele>89.48</ele>
        <time>2014-12-26T15:49:09Z</time>
      </trkpt>
      <trkpt lat="50.01871" lon="2.68864">
        <ele>90.7</ele>
        <time>2014-12-26T15:49:30Z</time>
      </trkpt>
      <trkpt lat="50.01886" lon="2.68847">
        <ele>90.43</ele>
        <time>2014-12-26T15:49:49Z</time>
      </trkpt>
      <trkpt lat="50.019" lon="2.68829">
        <ele>86.45</ele>
        <time>2014-12-26T15:50:04Z</time>
      </trkpt>
      <trkpt lat="50.01913" lon="2.68808">
        <ele>85.58</ele>
        <time>2014-12-26T15:50:35Z</time>
      </trkpt>
      <trkpt lat="50.01928" lon="2.68791">
        <ele>87.17</ele>
        <time>2014-12-26T15:50:50Z</time>
      </trkpt>
      <trkpt lat="50.01943" lon="2.68776">
        <ele>89.07</ele>
        <time>2014-12-26T15:51:04Z</time>
      </trkpt>
      <trkpt lat="50.01957" lon="2.68758">
        <ele>89.22</ele>
        <time>2014-12-26T15:51:27Z</time>
      </trkpt>
      <trkpt lat="50.01971" lon="2.68738">
        <ele>86.44</ele>
        <time>2014-12-26T15:52:02Z</time>
      </trkpt>
      <trkpt lat="50.01985" lon="2.68719">
        <ele>88.17</ele>
        <time>2014-12-26T15:52:20Z</time>
      </trkpt>
      <trkpt lat="50.01999" lon="2.68702">
        <ele>88.82</ele>
        <time>2014-12-26T15:52:45Z</time>
      </trkpt>
      <trkpt lat="50.02014" lon="2.68684">
        <ele>90.98</ele>
        <time>2014-12-26T15:53:02Z</time>
      </trkpt>
      <trkpt lat="50.02029" lon="2.68665">
        <ele>91.2</ele>
        <time>2014-12-26T15:53:20Z</time>
      </trkpt>
      <trkpt lat="50.02043" lon="2.68647">
        <ele>91.42</ele>
        <time>2014-12-26T15:53:40Z</time>
      </trkpt>
      <trkpt lat="50.02057" lon="2.68627">
        <ele>91.23</ele>
        <time>2014-12-26T15:54:00Z</time>
      </trkpt>
      <trkpt lat="50.02071" lon="2.68608">
        <ele>90.32</ele>
        <time>2014-12-26T15:54:19Z</time>
      </trkpt>
      <trkpt lat="50.02085" lon="2.6859">
        <ele>91.95</ele>
        <time>2014-12-26T15:54:36Z</time>
      </trkpt>
      <trkpt lat="50.02099" lon="2.68573">
        <ele>95.13</ele>
        <time>2014-12-26T15:54:53Z</time>
      </trkpt>
      <trkpt lat="50.02114" lon="2.68554">
        <ele>96.08</ele>
        <time>2014-12-26T15:55:09Z</time>
      </trkpt>
      <trkpt lat="50.02129" lon="2.68535">
        <ele>97.44</ele>
        <time>2014-12-26T15:55:24Z</time>
      </trkpt>
      <trkpt lat="50.02143" lon="2.68517">
        <ele>98.23</ele>
        <time>2014-12-26T15:55:38Z</time>
      </trkpt>
      <trkpt lat="50.02156" lon="2.68497">
        <ele>100.06</ele>
        <time>2014-12-26T15:55:56Z</time>
      </trkpt>
      <trkpt lat="50.02168" lon="2.68476">
        <ele>100.69</ele>
        <time>2014-12-26T15:56:11Z</time>
      </trkpt>
      <trkpt lat="50.0218" lon="2.68453">
        <ele>101.7</ele>
        <time>2014-12-26T15:56:27Z</time>
      </trkpt>
      <trkpt lat="50.02191" lon="2.68431">
        <ele>100.96</ele>
        <time>2014-12-26T15:56:44Z</time>
      </trkpt>
      <trkpt lat="50.02203" lon="2.6841">
        <ele>102.14</ele>
        <time>2014-12-26T15:57:00Z</time>
      </trkpt>
      <trkpt lat="50.02217" lon="2.68389">
        <ele>101.48</ele>
        <time>2014-12-26T15:57:14Z</time>
      </trkpt>
      <trkpt lat="50.02231" lon="2.68369">
        <ele>102.2</ele>
        <time>2014-12-26T15:57:31Z</time>
      </trkpt>
      <trkpt lat="50.02245" lon="2.6835">
        <ele>102.08</ele>
        <time>2014-12-26T15:57:47Z</time>
      </trkpt>
      <trkpt lat="50.0226" lon="2.68331">
        <ele>103.67</ele>
        <time>2014-12-26T15:58:03Z</time>
      </trkpt>
      <trkpt lat="50.02273" lon="2.68311">
        <ele>104.43</ele>
        <time>2014-12-26T15:58:19Z</time>
      </trkpt>
      <trkpt lat="50.02287" lon="2.68291">
        <ele>105.98</ele>
        <time>2014-12-26T15:58:37Z</time>
      </trkpt>
      <trkpt lat="50.02299" lon="2.68269">
        <ele>107.21</ele>
        <time>2014-12-26T15:58:53Z</time>
      </trkpt>
      <trkpt lat="50.02311" lon="2.68246">
        <ele>107.34</ele>
        <time>2014-12-26T15:59:10Z</time>
      </trkpt>
      <trkpt lat="50.02323" lon="2.68223">
        <ele>108.4</ele>
        <time>2014-12-26T15:59:27Z</time>
      </trkpt>
      <trkpt lat="50.02335" lon="2.682">
        <ele>109.2</ele>
        <time>2014-12-26T15:59:45Z</time>
      </trkpt>
      <trkpt lat="50.02346" lon="2.68178">
        <ele>109.95</ele>
        <time>2014-12-26T16:00:01Z</time>
      </trkpt>
      <trkpt lat="50.02359" lon="2.68156">
        <ele>110.15</ele>
        <time>2014-12-26T16:00:17Z</time>
      </trkpt>
      <trkpt lat="50.02371" lon="2.68133">
        <ele>110.76</ele>
        <time>2014-12-26T16:00:33Z</time>
      </trkpt>
      <trkpt lat="50.02383" lon="2.6811">
        <ele>112.26</ele>
        <time>2014-12-26T16:00:51Z</time>
      </trkpt>
      <trkpt lat="50.02395" lon="2.68087">
        <ele>111.65</ele>
        <time>2014-12-26T16:01:08Z</time>
      </trkpt>
      <trkpt lat="50.02406" lon="2.68065">
        <ele>112.19</ele>
        <time>2014-12-26T16:01:25Z</time>
      </trkpt>
      <trkpt lat="50.02414" lon="2.68039">
        <ele>112.45</ele>
        <time>2014-12-26T16:01:39Z</time>
      </trkpt>
      <trkpt lat="50.02418" lon="2.6801">
        <ele>111.11</ele>
        <time>2014-12-26T16:01:55Z</time>
      </trkpt>
      <trkpt lat="50.0242" lon="2.67981">
        <ele>111.21</ele>
        <time>2014-12-26T16:02:10Z</time>
      </trkpt>
      <trkpt lat="50.02424" lon="2.67953">
        <ele>112.44</ele>
        <time>2014-12-26T16:02:24Z</time>
      </trkpt>
      <trkpt lat="50.02427" lon="2.67924">
        <ele>109.88</ele>
        <time>2014-12-26T16:02:39Z</time>
      </trkpt>
      <trkpt lat="50.02431" lon="2.67896">
        <ele>108.45</ele>
        <time>2014-12-26T16:02:53Z</time>
      </trkpt>
      <trkpt lat="50.02433" lon="2.67867">
        <ele>108.45</ele>
        <time>2014-12-26T16:03:08Z</time>
      </trkpt>
      <trkpt lat="50.02435" lon="2.67839">
        <ele>107.55</ele>
        <time>2014-12-26T16:03:23Z</time>
      </trkpt>
      <trkpt lat="50.02437" lon="2.6781">
        <ele>107.2</ele>
        <time>2014-12-26T16:03:38Z</time>
      </trkpt>
      <trkpt lat="50.02441" lon="2.67782">
        <ele>104.27</ele>
        <time>2014-12-26T16:03:53Z</time>
      </trkpt>
      <trkpt lat="50.02444" lon="2.67753">
        <ele>104.22</ele>
        <time>2014-12-26T16:04:08Z</time>
      </trkpt>
      <trkpt lat="50.02446" lon="2.67724">
        <ele>103.21</ele>
        <time>2014-12-26T16:04:23Z</time>
      </trkpt>
      <trkpt lat="50.0245" lon="2.67695">
        <ele>104.26</ele>
        <time>2014-12-26T16:04:39Z</time>
      </trkpt>
      <trkpt lat="50.02453" lon="2.67666">
        <ele>102.83</ele>
        <time>2014-12-26T16:04:54Z</time>
      </trkpt>
      <trkpt lat="50.02455" lon="2.67637">
        <ele>102.08</ele>
        <time>2014-12-26T16:05:32Z</time>
      </trkpt>
      <trkpt lat="50.02459" lon="2.67609">
        <ele>102.19</ele>
        <time>2014-12-26T16:06:08Z</time>
      </trkpt>
      <trkpt lat="50.02462" lon="2.67581">
        <ele>99.2</ele>
        <time>2014-12-26T16:06:32Z</time>
      </trkpt>
      <trkpt lat="50.02465" lon="2.67552">
        <ele>99.2</ele>
        <time>2014-12-26T16:06:48Z</time>
      </trkpt>
      <trkpt lat="50.02469" lon="2.67523">
        <ele>100.2</ele>
        <time>2014-12-26T16:07:03Z</time>
      </trkpt>
      <trkpt lat="50.02473" lon="2.67496">
        <ele>98.23</ele>
        <time>2014-12-26T16:07:19Z</time>
      </trkpt>
      <trkpt lat="50.02476" lon="2.67468">
        <ele>97.76</ele>
        <time>2014-12-26T16:07:35Z</time>
      </trkpt>
      <trkpt lat="50.02479" lon="2.6744">
        <ele>96.2</ele>
        <time>2014-12-26T16:07:49Z</time>
      </trkpt>
      <trkpt lat="50.02482" lon="2.67412">
        <ele>96.2</ele>
        <time>2014-12-26T16:08:02Z</time>
      </trkpt>
      <trkpt lat="50.02486" lon="2.67385">
        <ele>98.06</ele>
        <time>2014-12-26T16:08:15Z</time>
      </trkpt>
      <trkpt lat="50.02489" lon="2.67356">
        <ele>98.64</ele>
        <time>2014-12-26T16:08:30Z</time>
      </trkpt>
      <trkpt lat="50.02492" lon="2.67327">
        <ele>97.7</ele>
        <time>2014-12-26T16:08:44Z</time>
      </trkpt>
      <trkpt lat="50.02495" lon="2.67299">
        <ele>97.21</ele>
        <time>2014-12-26T16:08:57Z</time>
      </trkpt>
      <trkpt lat="50.02498" lon="2.6727">
        <ele>94.22</ele>
        <time>2014-12-26T16:09:10Z</time>
      </trkpt>
      <trkpt lat="50.02501" lon="2.6724">
        <ele>93.98</ele>
        <time>2014-12-26T16:09:25Z</time>
      </trkpt>
      <trkpt lat="50.02503" lon="2.67211">
        <ele>94.01</ele>
        <time>2014-12-26T16:09:39Z</time>
      </trkpt>
      <trkpt lat="50.02506" lon="2.67182">
        <ele>92.68</ele>
        <time>2014-12-26T16:09:54Z</time>
      </trkpt>
      <trkpt lat="50.02509" lon="2.67155">
        <ele>91.26</ele>
        <time>2014-12-26T16:10:08Z</time>
      </trkpt>
      <trkpt lat="50.02512" lon="2.67126">
        <ele>91.49</ele>
        <time>2014-12-26T16:10:23Z</time>
      </trkpt>
      <trkpt lat="50.02514" lon="2.67097">
        <ele>89.77</ele>
        <time>2014-12-26T16:10:37Z</time>
      </trkpt>
      <trkpt lat="50.02516" lon="2.67069">
        <ele>87.27</ele>
        <time>2014-12-26T16:10:51Z</time>
      </trkpt>
      <trkpt lat="50.0252" lon="2.67041">
        <ele>88.31</ele>
        <time>2014-12-26T16:11:06Z</time>
      </trkpt>
      <trkpt lat="50.02521" lon="2.67013">
        <ele>84.71</ele>
        <time>2014-12-26T16:11:20Z</time>
      </trkpt>
      <trkpt lat="50.02526" lon="2.66984">
        <ele>85.59</ele>
        <time>2014-12-26T16:11:34Z</time>
      </trkpt>
      <trkpt lat="50.02529" lon="2.66955">
        <ele>84.2</ele>
        <time>2014-12-26T16:11:47Z</time>
      </trkpt>
      <trkpt lat="50.02533" lon="2.66926">
        <ele>82.86</ele>
        <time>2014-12-26T16:12:01Z</time>
      </trkpt>
      <trkpt lat="50.02536" lon="2.66897">
        <ele>81.27</ele>
        <time>2014-12-26T16:12:14Z</time>
      </trkpt>
      <trkpt lat="50.02539" lon="2.66868">
        <ele>80.54</ele>
        <time>2014-12-26T16:12:27Z</time>
      </trkpt>
      <trkpt lat="50.02541" lon="2.6684">
        <ele>80.18</ele>
        <time>2014-12-26T16:12:40Z</time>
      </trkpt>
      <trkpt lat="50.02545" lon="2.66812">
        <ele>80.23</ele>
        <time>2014-12-26T16:12:53Z</time>
      </trkpt>
      <trkpt lat="50.02549" lon="2.66784">
        <ele>78.95</ele>
        <time>2014-12-26T16:13:06Z</time>
      </trkpt>
      <trkpt lat="50.02556" lon="2.66758">
        <ele>77.2</ele>
        <time>2014-12-26T16:13:18Z</time>
      </trkpt>
      <trkpt lat="50.02567" lon="2.66734">
        <ele>75.74</ele>
        <time>2014-12-26T16:13:30Z</time>
      </trkpt>
      <trkpt lat="50.02582" lon="2.66717">
        <ele>75.09</ele>
        <time>2014-12-26T16:13:41Z</time>
      </trkpt>
      <trkpt lat="50.02598" lon="2.667">
        <ele>75.91</ele>
        <time>2014-12-26T16:13:56Z</time>
      </trkpt>
      <trkpt lat="50.02613" lon="2.66684">
        <ele>73.36</ele>
        <time>2014-12-26T16:14:08Z</time>
      </trkpt>
      <trkpt lat="50.02627" lon="2.66664">
        <ele>72.16</ele>
        <time>2014-12-26T16:14:23Z</time>
      </trkpt>
      <trkpt lat="50.02642" lon="2.66648">
        <ele>72.36</ele>
        <time>2014-12-26T16:14:37Z</time>
      </trkpt>
      <trkpt lat="50.02657" lon="2.6663">
        <ele>72.5</ele>
        <time>2014-12-26T16:14:52Z</time>
      </trkpt>
      <trkpt lat="50.02673" lon="2.66613">
        <ele>70.43</ele>
        <time>2014-12-26T16:15:03Z</time>
      </trkpt>
      <trkpt lat="50.02681" lon="2.66587">
        <ele>69.37</ele>
        <time>2014-12-26T16:15:16Z</time>
      </trkpt>
      <trkpt lat="50.02679" lon="2.66559">
        <ele>66.83</ele>
        <time>2014-12-26T16:15:29Z</time>
      </trkpt>
      <trkpt lat="50.02672" lon="2.66532">
        <ele>62.32</ele>
        <time>2014-12-26T16:15:42Z</time>
      </trkpt>
      <trkpt lat="50.02663" lon="2.66506">
        <ele>61.33</ele>
        <time>2014-12-26T16:15:54Z</time>
      </trkpt>
      <trkpt lat="50.02653" lon="2.6648">
        <ele>61.26</ele>
        <time>2014-12-26T16:16:07Z</time>
      </trkpt>
      <trkpt lat="50.02645" lon="2.66453">
        <ele>58.02</ele>
        <time>2014-12-26T16:16:21Z</time>
      </trkpt>
      <trkpt lat="50.02638" lon="2.66425">
        <ele>61.16</ele>
        <time>2014-12-26T16:16:34Z</time>
      </trkpt>
      <trkpt lat="50.02629" lon="2.664">
        <ele>61.72</ele>
        <time>2014-12-26T16:16:45Z</time>
      </trkpt>
      <trkpt lat="50.02623" lon="2.66372">
        <ele>60.82</ele>
        <time>2014-12-26T16:16:57Z</time>
      </trkpt>
      <trkpt lat="50.02617" lon="2.66345">
        <ele>61.74</ele>
        <time>2014-12-26T16:17:09Z</time>
      </trkpt>
      <trkpt lat="50.02611" lon="2.66317">
        <ele>64.2</ele>
        <time>2014-12-26T16:17:20Z</time>
      </trkpt>
      <trkpt lat="50.02603" lon="2.66291">
        <ele>64.38</ele>
        <time>2014-12-26T16:17:32Z</time>
      </trkpt>
      <trkpt lat="50.02597" lon="2.66263">
        <ele>65.83</ele>
        <time>2014-12-26T16:17:46Z</time>
      </trkpt>
      <trkpt lat="50.02588" lon="2.66238">
        <ele>64.72</ele>
        <time>2014-12-26T16:17:58Z</time>
      </trkpt>
      <trkpt lat="50.0258" lon="2.6621">
        <ele>66.67</ele>
        <time>2014-12-26T16:18:10Z</time>
      </trkpt>
      <trkpt lat="50.02572" lon="2.66183">
        <ele>64.46</ele>
        <time>2014-12-26T16:18:21Z</time>
      </trkpt>
      <trkpt lat="50.02566" lon="2.66156">
        <ele>63.2</ele>
        <time>2014-12-26T16:18:32Z</time>
      </trkpt>
      <trkpt lat="50.02561" lon="2.66128">
        <ele>65.06</ele>
        <time>2014-12-26T16:18:44Z</time>
      </trkpt>
      <trkpt lat="50.02554" lon="2.66101">
        <ele>66.29</ele>
        <time>2014-12-26T16:18:57Z</time>
      </trkpt>
      <trkpt lat="50.02547" lon="2.66073">
        <ele>68.67</ele>
        <time>2014-12-26T16:19:10Z</time>
      </trkpt>
      <trkpt lat="50.02535" lon="2.6605">
        <ele>68.41</ele>
        <time>2014-12-26T16:19:23Z</time>
      </trkpt>
      <trkpt lat="50.02518" lon="2.6606">
        <ele>62.55</ele>
        <time>2014-12-26T16:19:34Z</time>
      </trkpt>
      <trkpt lat="50.02501" lon="2.66068">
        <ele>62.11</ele>
        <time>2014-12-26T16:19:45Z</time>
      </trkpt>
      <trkpt lat="50.02482" lon="2.66073">
        <ele>65.91</ele>
        <time>2014-12-26T16:19:57Z</time>
      </trkpt>
      <trkpt lat="50.02463" lon="2.66076">
        <ele>72.15</ele>
        <time>2014-12-26T16:20:09Z</time>
      </trkpt>
      <trkpt lat="50.02444" lon="2.66079">
        <ele>74.09</ele>
        <time>2014-12-26T16:20:22Z</time>
      </trkpt>
      <trkpt lat="50.02426" lon="2.66087">
        <ele>78.57</ele>
        <time>2014-12-26T16:20:33Z</time>
      </trkpt>
      <trkpt lat="50.02407" lon="2.66084">
        <ele>72.4</ele>
        <time>2014-12-26T16:20:46Z</time>
      </trkpt>
      <trkpt lat="50.02389" lon="2.66074">
        <ele>72.34</ele>
        <time>2014-12-26T16:21:01Z</time>
      </trkpt>
      <trkpt lat="50.0237" lon="2.66069">
        <ele>73.89</ele>
        <time>2014-12-26T16:21:13Z</time>
      </trkpt>
      <trkpt lat="50.02352" lon="2.66061">
        <ele>71.29</ele>
        <time>2014-12-26T16:21:25Z</time>
      </trkpt>
      <trkpt lat="50.02335" lon="2.66049">
        <ele>67.79</ele>
        <time>2014-12-26T16:21:37Z</time>
      </trkpt>
      <trkpt lat="50.02319" lon="2.66033">
        <ele>69.15</ele>
        <time>2014-12-26T16:21:49Z</time>
      </trkpt>
      <trkpt lat="50.02306" lon="2.66014">
        <ele>68.43</ele>
        <time>2014-12-26T16:22:00Z</time>
      </trkpt>
      <trkpt lat="50.02299" lon="2.65987">
        <ele>70.89</ele>
        <time>2014-12-26T16:22:12Z</time>
      </trkpt>
      <trkpt lat="50.02295" lon="2.65958">
        <ele>72.58</ele>
        <time>2014-12-26T16:22:24Z</time>
      </trkpt>
      <trkpt lat="50.02293" lon="2.65929">
        <ele>73.45</ele>
        <time>2014-12-26T16:22:38Z</time>
      </trkpt>
      <trkpt lat="50.02294" lon="2.65899">
        <ele>70.69</ele>
        <time>2014-12-26T16:22:51Z</time>
      </trkpt>
      <trkpt lat="50.02296" lon="2.6587">
        <ele>71.58</ele>
        <time>2014-12-26T16:23:04Z</time>
      </trkpt>
      <trkpt lat="50.02299" lon="2.65841">
        <ele>73.19</ele>
        <time>2014-12-26T16:23:17Z</time>
      </trkpt>
      <trkpt lat="50.02303" lon="2.65813">
        <ele>73.15</ele>
        <time>2014-12-26T16:23:29Z</time>
      </trkpt>
      <trkpt lat="50.023" lon="2.65785">
        <ele>73.11</ele>
        <time>2014-12-26T16:23:42Z</time>
      </trkpt>
      <trkpt lat="50.02282" lon="2.65786">
        <ele>72.08</ele>
        <time>2014-12-26T16:26:33Z</time>
      </trkpt>
      <trkpt lat="50.02263" lon="2.65787">
        <ele>70.2</ele>
        <time>2014-12-26T16:26:47Z</time>
      </trkpt>
      <trkpt lat="50.02244" lon="2.6579">
        <ele>69.56</ele>
        <time>2014-12-26T16:27:01Z</time>
      </trkpt>
      <trkpt lat="50.02226" lon="2.65791">
        <ele>68.27</ele>
        <time>2014-12-26T16:27:13Z</time>
      </trkpt>
      <trkpt lat="50.02208" lon="2.658">
        <ele>63.5</ele>
        <time>2014-12-26T16:27:28Z</time>
      </trkpt>
      <trkpt lat="50.02189" lon="2.65803">
        <ele>63.64</ele>
        <time>2014-12-26T16:27:42Z</time>
      </trkpt>
      <trkpt lat="50.0217" lon="2.65811">
        <ele>63.2</ele>
        <time>2014-12-26T16:27:55Z</time>
      </trkpt>
      <trkpt lat="50.02152" lon="2.65817">
        <ele>63.64</ele>
        <time>2014-12-26T16:28:08Z</time>
      </trkpt>
      <trkpt lat="50.02134" lon="2.6582">
        <ele>62.12</ele>
        <time>2014-12-26T16:28:22Z</time>
      </trkpt>
      <trkpt lat="50.02115" lon="2.65823">
        <ele>63.2</ele>
        <time>2014-12-26T16:28:38Z</time>
      </trkpt>
      <trkpt lat="50.02097" lon="2.65829">
        <ele>63.35</ele>
        <time>2014-12-26T16:28:53Z</time>
      </trkpt>
      <trkpt lat="50.02078" lon="2.65832">
        <ele>63.17</ele>
        <time>2014-12-26T16:29:06Z</time>
      </trkpt>
      <trkpt lat="50.0206" lon="2.65839">
        <ele>63.7</ele>
        <time>2014-12-26T16:29:20Z</time>
      </trkpt>
      <trkpt lat="50.02041" lon="2.65843">
        <ele>64.75</ele>
        <time>2014-12-26T16:29:35Z</time>
      </trkpt>
      <trkpt lat="50.02023" lon="2.65847">
        <ele>61.28</ele>
        <time>2014-12-26T16:29:50Z</time>
      </trkpt>
      <trkpt lat="50.02005" lon="2.65845">
        <ele>65.99</ele>
        <time>2014-12-26T16:30:03Z</time>
      </trkpt>
      <trkpt lat="50.01988" lon="2.65833">
        <ele>62.58</ele>
        <time>2014-12-26T16:30:18Z</time>
      </trkpt>
      <trkpt lat="50.01974" lon="2.65814">
        <ele>62.07</ele>
        <time>2014-12-26T16:30:34Z</time>
      </trkpt>
      <trkpt lat="50.01959" lon="2.65797">
        <ele>61.05</ele>
        <time>2014-12-26T16:30:49Z</time>
      </trkpt>
      <trkpt lat="50.01944" lon="2.6578">
        <ele>58.11</ele>
        <time>2014-12-26T16:31:04Z</time>
      </trkpt>
      <trkpt lat="50.01931" lon="2.65758">
        <ele>58.33</ele>
        <time>2014-12-26T16:31:18Z</time>
      </trkpt>
      <trkpt lat="50.01917" lon="2.65738">
        <ele>56.79</ele>
        <time>2014-12-26T16:31:32Z</time>
      </trkpt>
      <trkpt lat="50.01906" lon="2.65716">
        <ele>60.35</ele>
        <time>2014-12-26T16:31:51Z</time>
      </trkpt>
      <trkpt lat="50.01894" lon="2.65695">
        <ele>58.29</ele>
        <time>2014-12-26T16:32:03Z</time>
      </trkpt>
      <trkpt lat="50.01879" lon="2.65675">
        <ele>58.11</ele>
        <time>2014-12-26T16:32:16Z</time>
      </trkpt>
      <trkpt lat="50.01864" lon="2.65657">
        <ele>56.71</ele>
        <time>2014-12-26T16:32:30Z</time>
      </trkpt>
      <trkpt lat="50.01851" lon="2.65636">
        <ele>56.23</ele>
        <time>2014-12-26T16:32:46Z</time>
      </trkpt>
      <trkpt lat="50.01838" lon="2.65618">
        <ele>56.2</ele>
        <time>2014-12-26T16:33:00Z</time>
      </trkpt>
      <trkpt lat="50.01824" lon="2.65598">
        <ele>58.36</ele>
        <time>2014-12-26T16:33:13Z</time>
      </trkpt>
      <trkpt lat="50.01805" lon="2.65598">
        <ele>55.9</ele>
        <time>2014-12-26T16:33:30Z</time>
      </trkpt>
      <trkpt lat="50.0179" lon="2.65615">
        <ele>57.18</ele>
        <time>2014-12-26T16:33:48Z</time>
      </trkpt>
      <trkpt lat="50.01778" lon="2.65636">
        <ele>60.2</ele>
        <time>2014-12-26T16:34:06Z</time>
      </trkpt>
      <trkpt lat="50.01768" lon="2.6566">
        <ele>58.23</ele>
        <time>2014-12-26T16:34:18Z</time>
      </trkpt>
      <trkpt lat="50.01757" lon="2.65683">
        <ele>56.82</ele>
        <time>2014-12-26T16:34:30Z</time>
      </trkpt>
      <trkpt lat="50.01746" lon="2.65706">
        <ele>59.1</ele>
        <time>2014-12-26T16:34:43Z</time>
      </trkpt>
      <trkpt lat="50.01733" lon="2.65727">
        <ele>56.46</ele>
        <time>2014-12-26T16:34:55Z</time>
      </trkpt>
      <trkpt lat="50.01718" lon="2.65743">
        <ele>56.69</ele>
        <time>2014-12-26T16:35:07Z</time>
      </trkpt>
      <trkpt lat="50.017" lon="2.65756">
        <ele>55.77</ele>
        <time>2014-12-26T16:35:19Z</time>
      </trkpt>
      <trkpt lat="50.01683" lon="2.6577">
        <ele>59.1</ele>
        <time>2014-12-26T16:35:32Z</time>
      </trkpt>
      <trkpt lat="50.01665" lon="2.65778">
        <ele>59.43</ele>
        <time>2014-12-26T16:35:44Z</time>
      </trkpt>
      <trkpt lat="50.01647" lon="2.65784">
        <ele>59.23</ele>
        <time>2014-12-26T16:35:56Z</time>
      </trkpt>
      <trkpt lat="50.01629" lon="2.65788">
        <ele>58.61</ele>
        <time>2014-12-26T16:36:10Z</time>
      </trkpt>
      <trkpt lat="50.0161" lon="2.65787">
        <ele>60.57</ele>
        <time>2014-12-26T16:36:24Z</time>
      </trkpt>
      <trkpt lat="50.01592" lon="2.65786">
        <ele>55.76</ele>
        <time>2014-12-26T16:37:49Z</time>
      </trkpt>
      <trkpt lat="50.01573" lon="2.65782">
        <ele>54.84</ele>
        <time>2014-12-26T16:38:03Z</time>
      </trkpt>
      <trkpt lat="50.01555" lon="2.65778">
        <ele>55.44</ele>
        <time>2014-12-26T16:38:23Z</time>
      </trkpt>
      <trkpt lat="50.01537" lon="2.65768">
        <ele>54.52</ele>
        <time>2014-12-26T16:38:38Z</time>
      </trkpt>
      <trkpt lat="50.0152" lon="2.65762">
        <ele>51.97</ele>
        <time>2014-12-26T16:38:49Z</time>
      </trkpt>
      <trkpt lat="50.01502" lon="2.65754">
        <ele>52.63</ele>
        <time>2014-12-26T16:39:01Z</time>
      </trkpt>
      <trkpt lat="50.01483" lon="2.65748">
        <ele>53.05</ele>
        <time>2014-12-26T16:39:14Z</time>
      </trkpt>
      <trkpt lat="50.01466" lon="2.6574">
        <ele>57.32</ele>
        <time>2014-12-26T16:39:25Z</time>
      </trkpt>
      <trkpt lat="50.01448" lon="2.65731">
        <ele>59.76</ele>
        <time>2014-12-26T16:39:38Z</time>
      </trkpt>
      <trkpt lat="50.0143" lon="2.65728">
        <ele>58.21</ele>
        <time>2014-12-26T16:39:51Z</time>
      </trkpt>
      <trkpt lat="50.01412" lon="2.65721">
        <ele>58.16</ele>
        <time>2014-12-26T16:40:05Z</time>
      </trkpt>
      <trkpt lat="50.01394" lon="2.65714">
        <ele>59.23</ele>
        <time>2014-12-26T16:40:19Z</time>
      </trkpt>
      <trkpt lat="50.01376" lon="2.65709">
        <ele>62.67</ele>
        <time>2014-12-26T16:40:36Z</time>
      </trkpt>
      <trkpt lat="50.01357" lon="2.65702">
        <ele>60.21</ele>
        <time>2014-12-26T16:40:52Z</time>
      </trkpt>
      <trkpt lat="50.01339" lon="2.65695">
        <ele>59.29</ele>
        <time>2014-12-26T16:41:05Z</time>
      </trkpt>
      <trkpt lat="50.01322" lon="2.65684">
        <ele>60.22</ele>
        <time>2014-12-26T16:41:18Z</time>
      </trkpt>
      <trkpt lat="50.01304" lon="2.6568">
        <ele>59.08</ele>
        <time>2014-12-26T16:41:32Z</time>
      </trkpt>
      <trkpt lat="50.01286" lon="2.65675">
        <ele>59.4</ele>
        <time>2014-12-26T16:41:49Z</time>
      </trkpt>
      <trkpt lat="50.01268" lon="2.6567">
        <ele>60.45</ele>
        <time>2014-12-26T16:42:03Z</time>
      </trkpt>
      <trkpt lat="50.01249" lon="2.65663">
        <ele>62.32</ele>
        <time>2014-12-26T16:42:18Z</time>
      </trkpt>
      <trkpt lat="50.01231" lon="2.65658">
        <ele>58.33</ele>
        <time>2014-12-26T16:42:32Z</time>
      </trkpt>
      <trkpt lat="50.01213" lon="2.65649">
        <ele>60.39</ele>
        <time>2014-12-26T16:42:44Z</time>
      </trkpt>
      <trkpt lat="50.01195" lon="2.65643">
        <ele>57.24</ele>
        <time>2014-12-26T16:43:00Z</time>
      </trkpt>
      <trkpt lat="50.01176" lon="2.65634">
        <ele>57</ele>
        <time>2014-12-26T16:43:13Z</time>
      </trkpt>
      <trkpt lat="50.01162" lon="2.65615">
        <ele>57.32</ele>
        <time>2014-12-26T16:43:23Z</time>
      </trkpt>
      <trkpt lat="50.0115" lon="2.65592">
        <ele>56.41</ele>
        <time>2014-12-26T16:43:34Z</time>
      </trkpt>
      <trkpt lat="50.01138" lon="2.65569">
        <ele>54.73</ele>
        <time>2014-12-26T16:43:45Z</time>
      </trkpt>
      <trkpt lat="50.01124" lon="2.65548">
        <ele>53.46</ele>
        <time>2014-12-26T16:43:58Z</time>
      </trkpt>
      <trkpt lat="50.01107" lon="2.65537">
        <ele>55.17</ele>
        <time>2014-12-26T16:44:08Z</time>
      </trkpt>
      <trkpt lat="50.01089" lon="2.65529">
        <ele>56.79</ele>
        <time>2014-12-26T16:44:19Z</time>
      </trkpt>
      <trkpt lat="50.01071" lon="2.65523">
        <ele>59.72</ele>
        <time>2014-12-26T16:44:29Z</time>
      </trkpt>
      <trkpt lat="50.01054" lon="2.6551">
        <ele>59.66</ele>
        <time>2014-12-26T16:44:41Z</time>
      </trkpt>
      <trkpt lat="50.01036" lon="2.65506">
        <ele>58.58</ele>
        <time>2014-12-26T16:44:54Z</time>
      </trkpt>
      <trkpt lat="50.01018" lon="2.65497">
        <ele>60.19</ele>
        <time>2014-12-26T16:45:05Z</time>
      </trkpt>
      <trkpt lat="50.00999" lon="2.6549">
        <ele>61.29</ele>
        <time>2014-12-26T16:45:16Z</time>
      </trkpt>
      <trkpt lat="50.00981" lon="2.65482">
        <ele>62.14</ele>
        <time>2014-12-26T16:45:28Z</time>
      </trkpt>
      <trkpt lat="50.00963" lon="2.65474">
        <ele>63.3</ele>
        <time>2014-12-26T16:45:39Z</time>
      </trkpt>
      <trkpt lat="50.00945" lon="2.65466">
        <ele>64.07</ele>
        <time>2014-12-26T16:45:49Z</time>
      </trkpt>
      <trkpt lat="50.00926" lon="2.6546">
        <ele>60.71</ele>
        <time>2014-12-26T16:45:58Z</time>
      </trkpt>
      <trkpt lat="50.00908" lon="2.65454">
        <ele>59.71</ele>
        <time>2014-12-26T16:46:07Z</time>
      </trkpt>
      <trkpt lat="50.00891" lon="2.6544">
        <ele>58.87</ele>
        <time>2014-12-26T16:46:20Z</time>
      </trkpt>
      <trkpt lat="50.00874" lon="2.65429">
        <ele>59.62</ele>
        <time>2014-12-26T16:46:34Z</time>
      </trkpt>
      <trkpt lat="50.00855" lon="2.65419">
        <ele>59.57</ele>
        <time>2014-12-26T16:46:47Z</time>
      </trkpt>
      <trkpt lat="50.0084" lon="2.65405">
        <ele>61.86</ele>
        <time>2014-12-26T16:47:00Z</time>
      </trkpt>
      <trkpt lat="50.00824" lon="2.6539">
        <ele>63.64</ele>
        <time>2014-12-26T16:47:13Z</time>
      </trkpt>
      <trkpt lat="50.00808" lon="2.65376">
        <ele>63.58</ele>
        <time>2014-12-26T16:47:25Z</time>
      </trkpt>
      <trkpt lat="50.00796" lon="2.65355">
        <ele>59.17</ele>
        <time>2014-12-26T16:47:43Z</time>
      </trkpt>
      <trkpt lat="50.00783" lon="2.65334">
        <ele>58.3</ele>
        <time>2014-12-26T16:47:56Z</time>
      </trkpt>
      <trkpt lat="50.00768" lon="2.65317">
        <ele>55.29</ele>
        <time>2014-12-26T16:48:09Z</time>
      </trkpt>
      <trkpt lat="50.00754" lon="2.65297">
        <ele>54.11</ele>
        <time>2014-12-26T16:48:23Z</time>
      </trkpt>
      <trkpt lat="50.00739" lon="2.65279">
        <ele>54.11</ele>
        <time>2014-12-26T16:48:36Z</time>
      </trkpt>
      <trkpt lat="50.00725" lon="2.6526">
        <ele>57.05</ele>
        <time>2014-12-26T16:48:49Z</time>
      </trkpt>
      <trkpt lat="50.00711" lon="2.6524">
        <ele>58.45</ele>
        <time>2014-12-26T16:49:02Z</time>
      </trkpt>
      <trkpt lat="50.00697" lon="2.65222">
        <ele>57.14</ele>
        <time>2014-12-26T16:49:16Z</time>
      </trkpt>
      <trkpt lat="50.00682" lon="2.65206">
        <ele>57.58</ele>
        <time>2014-12-26T16:49:28Z</time>
      </trkpt>
      <trkpt lat="50.00671" lon="2.65183">
        <ele>59.13</ele>
        <time>2014-12-26T16:49:41Z</time>
      </trkpt>
      <trkpt lat="50.00657" lon="2.65164">
        <ele>58.15</ele>
        <time>2014-12-26T16:49:55Z</time>
      </trkpt>
      <trkpt lat="50.00642" lon="2.65145">
        <ele>59.28</ele>
        <time>2014-12-26T16:50:08Z</time>
      </trkpt>
      <trkpt lat="50.0063" lon="2.65123">
        <ele>57.33</ele>
        <time>2014-12-26T16:50:24Z</time>
      </trkpt>
      <trkpt lat="50.00612" lon="2.65133">
        <ele>60.04</ele>
        <time>2014-12-26T16:50:42Z</time>
      </trkpt>
      <trkpt lat="50.00592" lon="2.6513">
        <ele>63.5</ele>
        <time>2014-12-26T16:50:56Z</time>
      </trkpt>
      <trkpt lat="50.00579" lon="2.6515">
        <ele>60.29</ele>
        <time>2014-12-26T16:51:08Z</time>
      </trkpt>
      <trkpt lat="50.00566" lon="2.65171">
        <ele>60.19</ele>
        <time>2014-12-26T16:51:24Z</time>
      </trkpt>
      <trkpt lat="50.00553" lon="2.65191">
        <ele>60.7</ele>
        <time>2014-12-26T16:51:40Z</time>
      </trkpt>
      <trkpt lat="50.0054" lon="2.65212">
        <ele>61.19</ele>
        <time>2014-12-26T16:51:57Z</time>
      </trkpt>
      <trkpt lat="50.00523" lon="2.65226">
        <ele>60.25</ele>
        <time>2014-12-26T16:52:45Z</time>
      </trkpt>
      <trkpt lat="50.00511" lon="2.65246">
        <ele>63.48</ele>
        <time>2014-12-26T16:53:02Z</time>
      </trkpt>
      <trkpt lat="50.00498" lon="2.65266">
        <ele>63.2</ele>
        <time>2014-12-26T16:53:20Z</time>
      </trkpt>
      <trkpt lat="50.00511" lon="2.65246">
        <ele>62.24</ele>
        <time>2014-12-26T16:53:35Z</time>
      </trkpt>
      <trkpt lat="50.00524" lon="2.65227">
        <ele>61.71</ele>
        <time>2014-12-26T16:53:51Z</time>
      </trkpt>
      <trkpt lat="50.00515" lon="2.65201">
        <ele>61.32</ele>
        <time>2014-12-26T16:54:33Z</time>
      </trkpt>
      <trkpt lat="50.00519" lon="2.65174">
        <ele>59.44</ele>
        <time>2014-12-26T16:54:57Z</time>
      </trkpt>
    </trkseg>
  </trk>
</gpx>